createdAt,value
2018-12-23T00:00:13.190Z,3.60
2018-12-23T00:02:41.049Z,3.70
2018-12-23T00:05:11.626Z,3.60
2018-12-23T00:07:38.244Z,3.60
2018-12-23T00:10:07.426Z,3.60
2018-12-23T00:12:35.209Z,3.50
2018-12-23T00:15:03.040Z,3.50
2018-12-23T00:17:31.114Z,3.40
2018-12-23T00:19:58.950Z,3.40
2018-12-23T00:22:26.490Z,3.30
2018-12-23T00:24:54.354Z,3.30
2018-12-23T00:27:22.074Z,3.20
2018-12-23T02:42:54.471Z,2.60
2018-12-23T02:45:22.081Z,2.70
2018-12-23T02:47:49.616Z,2.60
2018-12-23T02:50:17.624Z,2.60
2018-12-23T02:52:45.162Z,2.50
2018-12-23T02:55:12.705Z,2.60
2018-12-23T02:57:40.447Z,2.50
2018-12-23T03:00:08.132Z,2.50
2018-12-23T03:02:35.878Z,2.50
2018-12-23T03:05:03.631Z,2.50
2018-12-23T03:07:31.343Z,2.50
2018-12-23T03:09:59.462Z,2.60
2018-12-23T03:12:27.132Z,2.50
2018-12-23T05:43:49.496Z,2.90
2018-12-23T07:45:11.223Z,3.20
2018-12-23T07:50:08.953Z,3.20
2018-12-23T08:12:27.233Z,3.30
2018-12-23T08:47:06.171Z,3.70
2018-12-23T09:01:57.412Z,3.80
2018-12-23T09:09:23.635Z,4.00
2018-12-23T09:19:17.483Z,3.90
2018-12-23T09:26:43.969Z,4.00
2018-12-23T09:29:13.275Z,3.80
2018-12-23T09:31:41.802Z,3.80
2018-12-23T09:34:10.377Z,3.70
2018-12-23T10:16:18.736Z,3.50
2018-12-23T10:18:47.831Z,3.50
2018-12-23T10:21:16.365Z,3.50
2018-12-23T10:23:45.407Z,3.60
2018-12-23T10:28:42.509Z,3.60
2018-12-23T10:31:11.230Z,3.50
2018-12-23T10:33:39.939Z,3.50
2018-12-23T10:36:08.774Z,3.50
2018-12-23T10:38:37.922Z,3.60
2018-12-23T10:41:06.570Z,3.60
2018-12-23T10:43:35.461Z,3.50
2018-12-23T10:46:04.390Z,3.40
2018-12-23T10:48:33.132Z,3.50
2018-12-23T10:51:01.761Z,3.50
2018-12-23T10:53:30.796Z,3.50
2018-12-23T10:55:59.948Z,3.50
2018-12-23T10:58:28.780Z,3.60
2018-12-23T11:00:57.783Z,3.60
2018-12-23T11:03:26.289Z,3.60
2018-12-23T11:05:55.508Z,3.60
2018-12-23T11:15:51.452Z,3.40
2018-12-23T11:20:48.453Z,3.50
2018-12-23T11:23:17.517Z,3.50
2018-12-23T11:25:50.920Z,3.50
2018-12-23T11:28:21.782Z,3.50
2018-12-23T11:30:50.317Z,3.50
2018-12-23T11:33:22.293Z,3.50
2018-12-23T11:35:54.662Z,3.50
2018-12-23T11:38:24.381Z,3.50
2018-12-23T11:40:53.734Z,3.50
2018-12-23T11:43:23.531Z,3.50
2018-12-23T11:45:54.747Z,3.60
2018-12-23T11:48:26.082Z,3.60
2018-12-23T11:50:55.367Z,3.60
2018-12-23T11:53:25.703Z,3.50
2018-12-23T11:58:23.852Z,3.50
2018-12-23T12:00:52.634Z,3.50
2018-12-23T12:05:50.994Z,3.50
2018-12-23T12:08:20.183Z,3.50
2018-12-23T12:10:52.888Z,3.50
2018-12-23T12:13:22.649Z,3.50
2018-12-23T12:15:51.863Z,3.50
2018-12-23T12:18:21.523Z,3.60
2018-12-23T12:20:50.270Z,3.60
2018-12-23T12:23:21.225Z,3.70
2018-12-23T12:25:49.709Z,3.70
2018-12-23T12:28:18.556Z,3.70
2018-12-23T12:30:47.484Z,3.80
2018-12-23T12:33:16.744Z,3.80
2018-12-23T12:35:45.950Z,3.80
2018-12-23T12:38:16.199Z,3.80
2018-12-23T12:40:45.790Z,3.80
2018-12-23T12:43:15.714Z,4.00
2018-12-23T12:45:46.098Z,3.80
2018-12-23T12:48:14.789Z,3.70
2018-12-23T12:50:44.349Z,3.70
2018-12-23T12:53:13.951Z,3.70
2018-12-23T12:55:45.901Z,3.70
2018-12-23T12:58:15.331Z,3.60
2018-12-23T13:00:43.858Z,3.70
2018-12-23T13:03:16.379Z,3.70
2018-12-23T13:05:45.386Z,3.70
2018-12-23T13:08:15.111Z,3.70
2018-12-23T13:10:43.775Z,3.80
2018-12-23T13:13:13.234Z,3.90
2018-12-23T13:15:42.266Z,4.10
2018-12-23T13:18:12.329Z,4.20
2018-12-23T13:20:41.729Z,4.30
2018-12-23T13:23:10.712Z,4.40
2018-12-23T13:25:40.361Z,4.40
2018-12-23T13:28:09.771Z,4.40
2018-12-23T13:30:39.905Z,4.40
2018-12-23T13:33:08.728Z,4.40
2018-12-23T13:35:37.822Z,4.50
2018-12-23T13:38:07.163Z,4.40
2018-12-23T13:40:45.157Z,4.40
2018-12-23T13:43:35.895Z,4.20
2018-12-23T13:46:27.188Z,4.30
2018-12-23T13:49:08.304Z,4.30
2018-12-23T13:51:50.196Z,4.30
2018-12-23T13:54:41.587Z,4.30
2018-12-23T13:57:25.227Z,4.30
2018-12-23T14:00:14.347Z,4.20
2018-12-23T14:02:47.629Z,4.20
2018-12-23T14:05:39.295Z,4.10
2018-12-23T14:08:25.862Z,4.10
2018-12-23T14:11:04.258Z,3.80
2018-12-23T14:13:33.958Z,3.80
2018-12-23T14:16:03.870Z,3.70
2018-12-23T14:18:33.475Z,3.50
2018-12-23T14:21:02.846Z,3.40
2018-12-23T14:23:31.971Z,3.20
2018-12-23T14:26:05.266Z,3.20
2018-12-23T14:28:34.882Z,3.10
2018-12-23T14:31:04.052Z,3.10
2018-12-23T14:33:32.919Z,3.00
2018-12-23T14:36:02.875Z,2.80
2018-12-23T14:38:34.530Z,2.70
2018-12-23T14:41:05.560Z,2.60
2018-12-23T14:43:35.506Z,2.50
2018-12-23T14:46:05.901Z,2.30
2018-12-23T14:48:36.037Z,2.20
2018-12-23T14:51:04.999Z,2.30
2018-12-23T14:53:34.290Z,2.20
2018-12-23T14:56:03.117Z,2.30
2018-12-23T14:58:32.344Z,2.10
2018-12-23T15:01:01.669Z,2.10
2018-12-23T15:03:31.030Z,2.20
2018-12-23T15:06:00.628Z,2.30
2018-12-23T15:08:32.824Z,2.30
2018-12-23T15:11:02.596Z,2.30
2018-12-23T15:13:32.113Z,2.30
2018-12-23T15:16:07.965Z,2.30
2018-12-23T15:18:37.837Z,2.30
2018-12-23T15:21:07.042Z,2.30
2018-12-23T15:23:36.615Z,2.20
2018-12-23T15:26:08.645Z,2.20
2018-12-23T15:28:38.869Z,2.30
2018-12-23T15:31:09.692Z,2.40
2018-12-23T15:33:40.255Z,2.60
2018-12-23T15:36:13.891Z,2.70
2018-12-23T15:41:33.812Z,2.90
2018-12-23T15:46:30.797Z,3.40
2018-12-23T15:48:59.775Z,3.50
2018-12-23T15:51:28.480Z,3.70
2018-12-23T15:53:58.531Z,3.80
2018-12-23T15:56:27.609Z,3.90
2018-12-23T15:58:56.247Z,4.00
2018-12-23T16:01:25.385Z,4.20
2018-12-23T16:03:54.384Z,4.10
2018-12-23T16:06:23.278Z,4.10
2018-12-23T16:08:51.899Z,4.00
2018-12-23T16:11:20.768Z,4.00
2018-12-23T16:13:49.409Z,4.00
2018-12-23T16:16:19.132Z,4.00
2018-12-23T16:18:47.713Z,4.00
2018-12-23T16:21:16.512Z,4.00
2018-12-23T16:23:45.071Z,4.10
2018-12-23T16:26:13.640Z,4.10
2018-12-23T16:28:44.420Z,4.00
2018-12-23T16:31:14.978Z,4.00
2018-12-23T16:33:44.964Z,3.90
2018-12-23T16:36:17.453Z,3.90
2018-12-23T16:38:46.734Z,3.90
2018-12-23T16:41:16.964Z,4.00
2018-12-23T16:43:47.074Z,4.00
2018-12-23T16:46:17.046Z,4.00
2018-12-23T16:48:45.707Z,3.90
2018-12-23T16:51:18.518Z,3.80
2018-12-23T16:53:47.688Z,3.80
2018-12-23T16:56:18.666Z,3.90
2018-12-23T16:58:49.742Z,4.20
2018-12-23T17:01:20.613Z,4.10
2018-12-23T17:03:55.265Z,4.00
2018-12-23T17:06:35.540Z,4.00
2018-12-23T17:09:08.056Z,4.00
2018-12-23T17:14:27.340Z,3.90
2018-12-23T17:16:57.733Z,3.90
2018-12-23T17:19:26.733Z,4.00
2018-12-23T17:21:56.663Z,4.00
2018-12-23T17:24:27.285Z,4.00
2018-12-23T17:26:56.835Z,4.10
2018-12-23T17:29:32.156Z,4.00
2018-12-23T17:32:02.616Z,4.00
2018-12-23T17:34:32.528Z,4.30
2018-12-23T17:37:03.322Z,4.30
2018-12-23T17:39:34.484Z,4.30
2018-12-23T17:42:04.444Z,4.00
2018-12-23T17:44:36.233Z,4.00
2018-12-23T17:47:08.570Z,4.00
2018-12-23T17:49:39.794Z,4.00
2018-12-23T17:52:09.416Z,4.20
2018-12-23T17:54:43.586Z,4.10
2018-12-23T17:57:18.437Z,4.10
2018-12-23T17:59:51.673Z,4.10
2018-12-23T18:02:24.322Z,4.10
2018-12-23T18:05:00.156Z,4.10
2018-12-23T18:07:30.754Z,4.10
2018-12-23T18:10:07.398Z,4.10
2018-12-23T18:12:36.192Z,4.20
2018-12-23T18:15:06.036Z,4.20
2018-12-23T18:17:34.708Z,4.10
2018-12-23T18:20:04.003Z,4.00
2018-12-23T18:22:35.109Z,4.00
2018-12-23T18:25:03.831Z,4.00
2018-12-23T18:27:34.584Z,4.00
2018-12-23T18:30:03.039Z,3.80
2018-12-23T18:32:32.420Z,3.80
2018-12-23T18:35:02.561Z,3.80
2018-12-23T18:37:32.168Z,3.90
2018-12-23T18:40:01.024Z,3.90
2018-12-23T18:42:29.708Z,3.90
2018-12-23T18:44:58.319Z,3.80
2018-12-23T18:47:27.136Z,3.90
2018-12-23T18:49:55.905Z,3.90
2018-12-23T18:54:53.447Z,3.90
2018-12-23T18:57:22.263Z,4.00
2018-12-23T18:59:51.558Z,4.00
2018-12-23T19:02:20.256Z,4.00
2018-12-23T19:04:49.026Z,4.00
2018-12-23T19:07:18.200Z,3.60
2018-12-23T19:09:46.697Z,4.00
2018-12-23T19:12:33.813Z,4.10
2018-12-23T19:15:28.438Z,4.10
2018-12-23T19:18:00.691Z,4.10
2018-12-23T19:20:49.319Z,4.00
2018-12-23T19:23:44.333Z,4.00
2018-12-23T19:26:27.843Z,3.90
2018-12-23T19:29:00.153Z,3.80
2018-12-23T19:32:03.633Z,3.90
2018-12-23T19:34:41.680Z,3.90
2018-12-23T19:37:30.415Z,3.90
2018-12-23T19:40:22.684Z,4.00
2018-12-23T19:43:00.122Z,4.00
2018-12-23T19:45:42.025Z,4.10
2018-12-23T19:48:44.269Z,4.20
2018-12-23T19:51:42.842Z,4.20
2018-12-23T19:54:45.620Z,4.10
2018-12-23T19:57:26.479Z,4.10
2018-12-23T20:00:04.027Z,4.10
2018-12-23T20:03:00.705Z,3.90
2018-12-23T20:05:47.070Z,4.00
2018-12-23T20:08:36.267Z,3.80
2018-12-23T20:11:16.736Z,3.80
2018-12-23T20:13:48.650Z,3.90
2018-12-23T20:16:40.148Z,3.90
2018-12-23T20:19:23.629Z,3.90
2018-12-23T20:21:55.979Z,3.90
2018-12-23T20:24:40.084Z,3.80
2018-12-23T20:27:17.476Z,3.90
2018-12-23T20:29:49.621Z,3.90
2018-12-23T20:32:34.688Z,3.80
2018-12-23T20:35:27.801Z,3.80
2018-12-23T20:38:14.922Z,3.70
2018-12-23T20:41:17.195Z,3.40
2018-12-23T20:43:51.825Z,3.70
2018-12-23T20:46:49.655Z,3.70
2018-12-23T20:49:18.252Z,3.80
2018-12-23T20:52:01.919Z,4.00
2018-12-23T20:54:53.997Z,4.00
2018-12-23T20:57:40.992Z,4.00
2018-12-23T21:00:38.612Z,4.10
2018-12-23T21:03:44.113Z,4.10
2018-12-23T21:06:28.825Z,4.00
2018-12-23T21:09:21.736Z,3.90
2018-12-23T21:12:20.390Z,3.80
2018-12-23T21:15:21.031Z,3.80
2018-12-23T21:18:10.889Z,3.80
2018-12-23T21:21:03.898Z,3.90
2018-12-23T21:24:03.517Z,3.90
2018-12-23T21:26:41.321Z,4.00
2018-12-23T21:29:31.116Z,4.00
2018-12-23T21:32:19.560Z,4.00
2018-12-23T21:35:23.894Z,3.90
2018-12-23T21:38:23.275Z,3.80
2018-12-23T21:40:55.334Z,3.80
2018-12-23T21:43:35.767Z,4.00
2018-12-23T21:46:36.387Z,3.90
2018-12-23T21:49:37.239Z,3.90
2018-12-23T21:52:25.405Z,4.00
2018-12-23T21:55:17.187Z,3.90
2018-12-23T21:57:49.209Z,3.90
2018-12-23T22:00:27.186Z,4.00
2018-12-23T22:03:31.635Z,4.10
2018-12-23T22:06:12.363Z,4.20
2018-12-23T22:08:46.842Z,4.10
2018-12-23T22:11:40.090Z,4.20
2018-12-23T22:14:09.159Z,3.90
2018-12-23T22:16:37.886Z,3.80
2018-12-23T22:19:06.601Z,3.70
2018-12-23T22:21:35.160Z,3.80
2018-12-23T22:24:03.655Z,3.80
2018-12-23T22:26:32.282Z,3.70
2018-12-23T22:29:01.308Z,3.80
2018-12-23T22:31:30.156Z,3.80
2018-12-23T22:33:58.762Z,3.90
2018-12-23T22:36:27.290Z,3.90
2018-12-23T22:38:55.851Z,3.90
2018-12-23T22:41:24.802Z,3.80
2018-12-23T22:43:54.755Z,3.70
2018-12-23T22:46:23.890Z,3.70
2018-12-23T22:48:52.817Z,3.70
2018-12-23T22:51:21.453Z,3.80
2018-12-23T22:53:50.050Z,3.80
2018-12-23T22:56:18.587Z,3.80
2018-12-23T22:58:47.090Z,3.80
2018-12-23T23:01:18.913Z,3.80
2018-12-23T23:03:47.848Z,3.70
2018-12-23T23:06:16.536Z,3.80
2018-12-23T23:08:46.162Z,3.80
2018-12-23T23:11:14.915Z,3.70
2018-12-23T23:13:43.902Z,3.70
2018-12-23T23:16:12.398Z,3.70
2018-12-23T23:18:41.090Z,3.60
2018-12-23T23:21:09.660Z,3.60
2018-12-23T23:23:38.912Z,3.70
2018-12-23T23:26:07.534Z,3.70
2018-12-23T23:28:36.196Z,3.70
2018-12-23T23:31:05.276Z,3.70
2018-12-23T23:33:33.982Z,3.70
2018-12-23T23:36:02.578Z,3.70
2018-12-23T23:38:31.653Z,3.80
2018-12-23T23:41:00.560Z,3.80
2018-12-23T23:43:29.366Z,3.70
2018-12-23T23:45:57.864Z,3.70
2018-12-23T23:48:26.494Z,3.70
2018-12-23T23:50:55.232Z,3.80
2018-12-23T23:53:24.092Z,3.70
2018-12-23T23:55:52.623Z,3.70
2018-12-23T23:58:21.574Z,3.70
